x

Neah Bay, - 6nm North Of Cape Flattery, Wa (traffic Separation Lighted Buoy) (46087) Wave Buoy

12:50am - Wed 25th Apr 2018 All times are PDT. -7 hours from GMT.

  • Sig Wave height 6.2ft
  • Swell Direction
  • Peak Period 14s
  • Average Period 10s
  • Wind
    2mph, 4mph gusts
  • Sea Temp 51°f
  • Air Temp 52°f
  • Sea Pressure 1018.3mb
  • Neah Bay, - 6nm North Of Cape Flattery, Wa     (traffic Separation Lighted Buoy)
  • Neah Bay, - 6nm North Of Cape Flattery, Wa     (traffic Separation Lighted Buoy)

More Historic Weather Station data

Upgrade to MSW Pro to gain access to the past 30 days of data for over 8000 Wavebouys and Weather Stations around the globe.

Join

Comparision Forecast

View Surf forecast
   
Wed 04/25 12:50am 6ft 14s 10s 2 4 mph 1018.3mb 51f 52f
12:20am 6ft 14s 10s 4 7 mph 1018.1mb 51f 52f
Tue 04/24 11:50pm 6ft 14s 10s 7 7 mph 1018.2mb 51f 52f
11:20pm 6ft 13s 10s 4 9 mph 1018mb 51f 52f
10:50pm 6ft 13s 10s 4 7 mph 1018.3mb 51f 52f
10:20pm 7ft 14s 10s 4 4 mph 1018.5mb 51f 53f
9:50pm 7ft 14s  -  2 4 mph 1018.4mb 51f 53f
9:20pm 7.5ft 15s  -  4 7 mph 1018.2mb 51f 53f
8:50pm 6.5ft 15s 9s 4 7 mph 1018.1mb 51f 53f
8:20pm 7ft 13s 9s 7 7 mph 1017.9mb 51f 54f
7:50pm 7ft 15s 9s 7 9 mph 1018mb 52f 54f
7:20pm 6ft 15s 9s 4 7 mph 1018.1mb 52f 54f
6:50pm 7ft 14s 10s 7 7 mph 1018.4mb 52f 54f
6:20pm 7ft 14s 10s 4 7 mph 1018.7mb 51f 55f
5:50pm 7ft 12s 9s 4 9 mph 1019.1mb 51f 58f
5:20pm 8ft 15s 10s 7 9 mph 1019.6mb 51f 56f
4:50pm 8ft 15s 10s 9 11 mph 1019.7mb 51f 55f
3:50pm 8ft 12s 10s 11 13 mph 1020.3mb 51f 54f
3:20pm 8.5ft 15s 10s 11 16 mph 1020.6mb 51f 54f
2:50pm 9ft 11s 10s 13 18 mph 1020.8mb 51f 54f
2:20pm 9.5ft 11s 10s 9 13 mph 1021.1mb 51f 53f
1:50pm 8.5ft 11s 10s 9 13 mph 1021.3mb 51f 53f
1:20pm 9.5ft 15s 10s 11 16 mph 1021.6mb 51f 53f
12:50pm 9ft 15s 10s 11 16 mph 1022mb 51f 52f
12:20pm 10ft 15s 10s 11 16 mph 1022.2mb 50f 52f
11:50am 10.5ft 13s 10s 11 16 mph 1022.3mb 50f 52f
11:20am 10.5ft 15s 11s 13 18 mph 1022.3mb 50f 52f
10:50am 11ft 14s 10s 16 20 mph 1022.1mb 50f 52f
10:20am 11ft 15s 10s 11 18 mph 1022.3mb 50f 52f
9:50am 10.5ft 15s 11s 16 22 mph 1021.9mb 50f 52f
9:20am 8.5ft 14s 10s 16 20 mph 1022.2mb 50f 52f
8:50am 10ft 15s 11s 16 18 mph 1022.4mb 50f 52f
8:20am 9ft 15s 10s 16 18 mph 1022.5mb 50f 52f
7:50am 8.5ft 15s 10s 16 18 mph 1022.3mb 50f 52f
7:20am 8ft 15s 10s 18 20 mph 1022mb 50f 51f
6:50am 8ft 16s 10s 18 22 mph 1021.9mb 50f 51f
6:20am 8.5ft 16s 10s 18 20 mph 1021.9mb 50f 51f
5:50am 7ft 16s 9s 18 20 mph 1021.7mb 50f 51f
5:20am 7ft 16s 9s 18 22 mph 1021.9mb 50f 51f
4:50am 7ft 16s 9s 18 22 mph 1021.9mb 50f 52f
4:20am 6.5ft 11s 9s 18 22 mph 1022.1mb 50f 51f
3:50am 7ft 17s 9s 18 22 mph 1022.2mb 50f 51f
3:20am 7ft 11s 10s 18 22 mph 1022.4mb 50f 51f
2:50am 6.5ft 11s 9s 16 20 mph 1022.5mb 50f 52f
2:20am 6ft 10s 8s 16 20 mph 1022.6mb 50f 52f
1:50am 6ft 12s 9s 20 25 mph 1022.6mb 50f 53f
1:20am 7ft 11s 10s 16 20 mph 1022.8mb 50f 52f
12:50am 7ft 11s 9s 11 16 mph 1022.9mb 50f 52f
12:20am 6.5ft 11s 9s 13 18 mph 1022.7mb 50f 53f
Mon 04/23 11:50pm 7ft 11s 9s 13 16 mph 1022.6mb 50f 53f
11:20pm 7ft 11s 9s 11 13 mph 1022.6mb 50f 53f
10:50pm 6.5ft 11s 9s 11 13 mph 1022.8mb 50f 53f
10:20pm 6ft 11s 9s 9 11 mph 1022.9mb 51f 53f
9:50pm 7ft 11s 9s 11 13 mph 1023.1mb 51f 53f
9:20pm 7ft 11s 9s 11 16 mph 1023mb 51f 55f
8:50pm 7ft 10s 9s 13 16 mph 1022.7mb 51f 54f
8:20pm 5.5ft 10s 9s 11 13 mph 1022.5mb 51f 53f
7:50pm 5.5ft 11s 9s 13 13 mph 1022.4mb 51f 54f
7:20pm 5.5ft 11s 9s 13 16 mph 1022.5mb 51f 54f
6:50pm 5ft 10s 8s 13 13 mph 1022.9mb 51f 54f
6:20pm 5ft 11s 8s 11 13 mph 1023.5mb 51f 53f
5:50pm 5ft 11s 7s 11 13 mph 1023.7mb 51f 53f
5:20pm 4.5ft 11s 7s 13 13 mph 1024mb 51f 53f
4:50pm 4.5ft 11s 7s 11 13 mph 1024.6mb 51f 52f
4:20pm 4.5ft 11s 7s 11 13 mph 1025.3mb 51f 52f
3:50pm 4.5ft 12s 7s 11 13 mph 1025.6mb 51f 52f
3:20pm 4.5ft 12s 6s 18 22 mph 1025.5mb 51f 52f
2:50pm 4ft 11s 6s 18 20 mph 1026mb 51f 52f
2:20pm 4ft 12s 6s 16 18 mph 1026.2mb 50f 51f
1:50pm 4ft 12s 6s 16 20 mph 1026.3mb 50f 51f
1:20pm 3.5ft 10s 6s 20 22 mph 1026.5mb 50f 51f
12:50pm 4ft 13s 6s 18 20 mph 1026.8mb 50f 51f
12:20pm 4ft 13s 7s 16 18 mph 1027.1mb 50f 51f
11:50am 3.5ft 11s 7s 13 16 mph 1027.5mb 50f 50f
11:20am 4ft 11s 8s 13 18 mph 1027.6mb 50f 50f
10:50am 4ft 10s 8s 16 18 mph 1027.6mb 50f 50f
10:20am 4ft 12s 7s 13 16 mph 1027.4mb 50f 49f
9:50am 4.5ft 11s 7s 13 16 mph 1027.3mb 50f 49f
9:20am 5ft 10s 7s 11 13 mph 1027.5mb 50f 49f
8:50am 5ft 13s 7s 11 13 mph 1027.7mb 50f 49f
8:20am 5ft 11s 8s 11 13 mph 1027.6mb 50f 48f
7:50am 5ft 9s 8s 11 13 mph 1027.7mb 50f 48f
7:20am 5.5ft 9s 8s 9 11 mph 1027.6mb 50f 47f
6:50am 5.5ft 11s 8s 11 13 mph 1027.3mb 50f 47f
6:20am 5.5ft 11s 8s 13 18 mph 1027.1mb 50f 46f
5:50am 6ft 11s 8s 13 16 mph 1026.8mb 50f 47f
5:20am 5.5ft 12s 8s 13 18 mph 1026.6mb 50f 47f
4:50am 6ft 12s 8s 16 18 mph 1026.6mb 50f 47f
4:20am 5.5ft 11s 7s 13 18 mph 1026.9mb 50f 47f
3:50am 6ft 12s 7s 16 20 mph 1027mb 50f 47f
3:20am 6ft 10s 8s 18 22 mph 1026.9mb 50f 47f
2:50am 5.5ft 11s 7s 18 22 mph 1026.8mb 50f 47f
2:20am 6ft 12s 8s 16 20 mph 1026.9mb 50f 48f
1:50am 6ft 12s 8s 13 18 mph 1027.1mb 50f 48f
1:20am 5.5ft 13s 8s 11 16 mph 1027mb 50f 48f
12:50am 5.5ft 13s 9s 7 9 mph 1027.1mb 50f 48f
12:20am 5ft 13s 8s 9 9 mph 1026.9mb 51f 48f
Sun 04/22 11:50pm 5.5ft 12s 8s 9 11 mph 1026.9mb 51f 49f
11:20pm 5ft 12s 8s 7 9 mph 1027.1mb 51f 49f
10:50pm 5ft 12s 8s 4 4 mph 1027.4mb 51f 49f
10:20pm 5ft 11s 8s 9 11 mph 1027.6mb 51f 50f
9:50pm 5ft 12s 8s 11 16 mph 1027.6mb 51f 50f
9:20pm 5ft 12s 8s 11 13 mph 1027.5mb 51f 50f
8:50pm 5ft 14s 8s 11 13 mph 1027.2mb 51f 50f
8:20pm 5.5ft 13s 8s 13 16 mph 1027mb 51f 50f
6:50pm 5.5ft 14s 8s 11 13 mph 1027.2mb 52f 50f
6:20pm 6.5ft 14s 7s 9 11 mph 1027.6mb 52f 50f
5:50pm 6.5ft 14s 8s 7 9 mph 1027.8mb 52f 50f
5:20pm 6ft 14s 7s 9 11 mph 1028mb 52f 50f
4:50pm 6.5ft 14s 8s 11 13 mph 1028.2mb 52f 49f
3:50pm 6ft 12s 8s 11 13 mph 1028.9mb 53f 49f
3:20pm 6.5ft 14s 8s 9 11 mph 1029.1mb 52f 49f
2:50pm 8ft 12s 8s 7 9 mph 1029.3mb 52f 48f
2:20pm 7ft 8s 9s 7 9 mph 1029.4mb 52f 48f
1:50pm 7ft 9s 9s 7 9 mph 1029.6mb 52f 47f
1:20pm 6.5ft 8s 8s 7 7 mph 1029.7mb 51f 48f
12:50pm 7ft 12s 9s 2 4 mph 1029.9mb 51f 48f
12:20pm 7ft 11s 9s 2 4 mph 1030mb 51f 48f
11:50am 7ft 9s 8s 4 7 mph 1030.1mb 50f 47f
11:20am 8ft 13s 8s 4 7 mph 1030.1mb 50f 47f
10:50am 6.5ft 13s 9s 7 7 mph 1030mb 50f 46f
10:20am 7ft 11s 9s 4 7 mph 1030.2mb 49f 46f
9:50am 7.5ft 13s 8s 4 7 mph 1030mb 49f 45f
9:20am 7ft 13s 8s 4 7 mph 1030.1mb 49f 45f
8:50am 7ft 13s 8s 4 9 mph 1030.2mb 49f 44f
8:20am 7ft 13s 8s 4 4 mph 1030.1mb 49f 44f
7:50am 8ft 14s 9s 4 7 mph 1029.9mb 49f 44f
7:20am 7ft 13s 8s 4 7 mph 1029.7mb 49f 44f
6:50am 6.5ft 12s 8s 4 7 mph 1029.8mb 49f 44f
6:20am 6ft 13s 8s 4 7 mph 1029.9mb 49f 43f
5:50am 6.5ft 14s 8s 4 7 mph 1029.8mb 49f 44f
5:20am 7ft 8s 8s 2 2 mph 1029.8mb 49f 44f
4:50am 7ft 9s 8s 4 7 mph 1029.8mb 49f 44f
4:20am 7ft 14s 8s 2 4 mph 1029.8mb 49f 44f
3:50am 6.5ft 14s 8s 4 7 mph 1029.8mb 49f 44f
3:20am 6.5ft 14s 8s 2 7 mph 1029.8mb 49f 45f
2:50am 6ft 11s 8s 2 4 mph 1029.9mb 49f 45f
2:20am 6ft 9s 8s 4 7 mph 1030mb 49f 45f
1:50am 7ft 9s 8s 7 9 mph 1029.9mb 50f 46f
1:20am 6.5ft 12s 8s 7 11 mph 1030mb 50f 47f
12:50am 7ft 9s 8s 7 9 mph 1030.1mb 50f 47f
12:20am 7ft 9s 8s 9 11 mph 1030.1mb 50f 47f
Sat 04/21 11:50pm 7ft 8s 8s 11 13 mph 1030.2mb 50f 48f
11:20pm 7.5ft 9s 8s 9 11 mph 1030.5mb 50f 48f
10:50pm 8ft 9s 8s 11 13 mph 1030.5mb 50f 49f
10:20pm 8ft 9s 8s 13 16 mph 1030.8mb 50f 49f
9:50pm 8ft 10s 8s 13 16 mph 1030.7mb 49f 49f
9:20pm 8ft 9s 8s 13 16 mph 1030.7mb 49f 48f
8:50pm 9.5ft 9s 8s 13 16 mph 1030.5mb 49f 48f
8:20pm 9ft 9s 7s 13 16 mph 1030.4mb 49f 49f
7:50pm 10ft 8s 8s 13 16 mph 1030.3mb 49f 49f
7:20pm 10ft 10s 8s 13 16 mph 1030.4mb 49f 49f
6:50pm 11ft 9s 8s 13 18 mph 1030.5mb 49f 49f
6:20pm 10ft 10s 7s 13 16 mph 1030.5mb 50f 49f
5:50pm 10.5ft 9s 8s 13 18 mph 1030.3mb 50f 49f
5:20pm 10ft 11s 8s 11 13 mph 1030.4mb 50f 49f
4:50pm 11ft 9s 8s 9 13 mph 1030.4mb 50f 48f
4:20pm 11ft 9s 8s 9 13 mph 1030.4mb 49f 48f
3:50pm 11ft 8s 8s 9 13 mph 1030.5mb 49f 48f
3:20pm 10.5ft 10s 8s 11 13 mph 1030.6mb 49f 48f
2:50pm 11ft 9s 9s 16 18 mph 1030.5mb 49f 47f
2:20pm 10ft 9s 8s 13 18 mph 1030.3mb 49f 48f
1:50pm 10ft 10s 9s 11 16 mph 1030.2mb 49f 48f
1:20pm 10.5ft 10s 9s 11 16 mph 1030mb 49f 48f
12:50pm 10ft 10s 8s 11 16 mph 1029.7mb 49f 48f
12:20pm 9.5ft 10s 9s 11 16 mph 1029.4mb 49f 48f
11:50am 9ft 10s 8s 13 20 mph 1029.1mb 49f 48f
11:20am 10.5ft 10s 9s 13 16 mph 1028.9mb 49f 48f
10:50am 10ft 10s 8s 13 18 mph 1028.5mb 49f 47f
10:20am 11ft 11s 8s 11 13 mph 1028.2mb 49f 48f
9:50am 11ft 11s 8s 13 16 mph 1027.8mb 49f 48f
9:20am 10.5ft 10s 8s 13 18 mph 1027.4mb 49f 48f